Terminal Aerodrome Forecast
Issued by NWS Melbourne, FL

Current Version | Previous Version | Text Only | Print | Product List | Glossary On
Versions: 1 2 3 4 5 6 7 8 9 10 11 12 13 14 15 16 17 18 19
000
FTUS42 KMLB 230421 AAB
TAFDAB
TAF AMD
KDAB 230421Z 2304/2324 02006KT P6SM VCSH SCT035 BKN080
     FM230900 03009KT P6SM VCSH BKN035
      TEMPO 2310/2314 5SM -SHRA BKN025
     FM231400 05017G25KT P6SM VCSH BKN025=

USA.gov is the U.S. government's official web portal to all federal, state and local government web resources and services.